createdAt,value
2023-03-02T00:01:08.529Z,11.77
2023-03-02T00:03:39.979Z,10.57
2023-03-02T00:06:07.975Z,11.13
2023-03-02T00:08:35.738Z,10.50
2023-03-02T00:11:03.191Z,11.15
2023-03-02T00:13:30.987Z,11.07
2023-03-02T00:15:58.264Z,10.93
2023-03-02T00:18:25.554Z,11.20
2023-03-02T00:20:52.722Z,11.15
2023-03-02T00:23:19.960Z,10.32
2023-03-02T00:25:47.283Z,12.50
2023-03-02T00:28:14.616Z,12.55
2023-03-02T00:30:41.818Z,11.77
2023-03-02T00:33:09.155Z,12.55
2023-03-02T00:35:40.019Z,12.32
2023-03-02T00:38:08.381Z,11.90
2023-03-02T00:40:36.334Z,12.27
2023-03-02T00:43:03.841Z,12.40
2023-03-02T00:45:31.171Z,12.77
2023-03-02T00:47:58.499Z,11.68
2023-03-02T00:50:25.691Z,11.63
2023-03-02T00:52:53.082Z,12.82
2023-03-02T00:55:20.511Z,13.07
2023-03-02T00:57:55.034Z,12.07
2023-03-02T01:00:23.556Z,12.52
2023-03-02T01:02:51.245Z,12.35
2023-03-02T01:05:18.587Z,11.77
2023-03-02T01:07:45.848Z,11.17
2023-03-02T01:10:13.846Z,12.35
2023-03-02T01:12:41.464Z,11.80
2023-03-02T01:15:09.618Z,12.65
2023-03-02T01:17:36.861Z,11.85
2023-03-02T01:20:05.610Z,12.83
2023-03-02T01:22:32.751Z,13.02
2023-03-02T01:24:59.931Z,12.18
2023-03-02T01:27:27.078Z,12.77
2023-03-02T01:29:54.849Z,12.77
2023-03-02T01:32:22.371Z,12.33
2023-03-02T01:34:49.744Z,12.45
2023-03-02T01:37:16.935Z,12.27
2023-03-02T01:39:44.106Z,12.43
2023-03-02T01:42:11.419Z,12.88
2023-03-02T01:44:43.787Z,12.07
2023-03-02T01:47:14.240Z,12.98
2023-03-02T01:49:44.157Z,12.40
2023-03-02T01:52:12.126Z,12.07
2023-03-02T01:54:40.248Z,12.57
2023-03-02T01:57:08.688Z,11.90
2023-03-02T01:59:37.214Z,11.93
2023-03-02T02:02:05.891Z,11.85
2023-03-02T02:04:34.245Z,12.73
2023-03-02T02:07:06.020Z,13.25
2023-03-02T02:09:35.526Z,11.60
2023-03-02T02:12:03.172Z,12.63
2023-03-02T02:14:30.303Z,11.93
2023-03-02T02:16:57.515Z,12.98
2023-03-02T02:19:36.428Z,12.13
2023-03-02T02:22:03.723Z,13.13
2023-03-02T02:24:35.038Z,12.13
2023-03-02T02:27:02.797Z,12.98
2023-03-02T02:29:45.514Z,12.52
2023-03-02T02:32:13.003Z,12.45
2023-03-02T02:34:42.677Z,12.27
2023-03-02T02:37:12.729Z,11.95
2023-03-02T02:39:42.400Z,12.60
2023-03-02T02:42:13.846Z,12.55
2023-03-02T02:44:41.037Z,12.40
2023-03-02T02:47:19.469Z,11.77
2023-03-02T02:49:47.354Z,11.63
2023-03-02T02:52:19.591Z,11.90
2023-03-02T02:54:47.998Z,11.13
2023-03-02T02:57:17.754Z,11.85
2023-03-02T02:59:47.209Z,11.90
2023-03-02T03:02:19.518Z,12.55
2023-03-02T03:04:46.983Z,11.95
2023-03-02T03:07:18.078Z,12.38
2023-03-02T03:09:46.490Z,12.18
2023-03-02T03:12:23.034Z,12.77
2023-03-02T03:14:50.443Z,11.30
2023-03-02T03:17:17.743Z,12.48
2023-03-02T03:19:46.283Z,11.43
2023-03-02T03:22:15.165Z,12.02
2023-03-02T03:24:43.438Z,12.20
2023-03-02T03:27:11.680Z,12.15
2023-03-02T03:29:39.950Z,12.85
2023-03-02T03:32:07.546Z,11.82
2023-03-02T03:34:40.731Z,12.10
2023-03-02T03:37:09.206Z,11.30
2023-03-02T03:39:36.534Z,11.98
2023-03-02T03:42:03.799Z,10.30
2023-03-02T03:44:31.134Z,11.88
2023-03-02T03:46:58.596Z,10.93
2023-03-02T03:49:25.915Z,11.93
2023-03-02T03:51:53.524Z,10.98
2023-03-02T03:54:20.776Z,11.48
2023-03-02T03:56:49.369Z,11.55
2023-03-02T03:59:18.170Z,11.77
2023-03-02T04:01:50.364Z,11.27
2023-03-02T04:04:19.693Z,11.05
2023-03-02T04:06:47.232Z,11.80
2023-03-02T04:09:15.669Z,11.00
2023-03-02T04:11:44.147Z,10.93
2023-03-02T04:14:12.555Z,11.10
2023-03-02T04:16:40.147Z,11.15
2023-03-02T04:19:10.927Z,10.45
2023-03-02T04:21:42.379Z,11.05
2023-03-02T04:24:10.054Z,10.75
2023-03-02T04:26:38.217Z,11.40
2023-03-02T04:29:05.956Z,10.43
2023-03-02T04:31:33.353Z,11.52
2023-03-02T04:34:04.175Z,10.57
2023-03-02T04:36:32.994Z,10.73
2023-03-02T04:39:00.511Z,10.03
2023-03-02T04:41:27.720Z,8.60
2023-03-02T04:43:54.946Z,10.15
2023-03-02T04:46:26.428Z,11.20
2023-03-02T04:48:53.718Z,10.77
2023-03-02T04:51:24.327Z,10.37
2023-03-02T04:53:52.424Z,10.23
2023-03-02T04:56:19.712Z,9.20
2023-03-02T04:58:46.953Z,10.13
2023-03-02T05:01:15.531Z,10.20
2023-03-02T05:03:42.799Z,10.33
2023-03-02T05:06:10.843Z,9.95
2023-03-02T05:08:38.726Z,10.43
2023-03-02T05:11:07.905Z,10.20
2023-03-02T05:13:35.968Z,9.23
2023-03-02T05:16:03.499Z,10.63
2023-03-02T05:18:31.404Z,9.77
2023-03-02T05:20:58.514Z,8.68
2023-03-02T05:23:27.088Z,9.82
2023-03-02T05:25:55.606Z,9.85
2023-03-02T05:28:23.898Z,9.23
2023-03-02T05:30:51.546Z,9.32
2023-03-02T05:33:18.943Z,9.73
2023-03-02T05:35:46.547Z,9.85
2023-03-02T05:38:14.012Z,10.27
2023-03-02T05:40:42.592Z,9.50
2023-03-02T05:43:10.467Z,9.93
2023-03-02T05:45:39.387Z,11.07
2023-03-02T05:48:07.016Z,9.20
2023-03-02T05:50:34.640Z,10.43
2023-03-02T05:53:02.714Z,9.63
2023-03-02T05:55:30.042Z,9.73
2023-03-02T05:57:57.813Z,10.77
2023-03-02T06:00:25.255Z,11.23
2023-03-02T06:02:52.659Z,11.77
2023-03-02T06:05:21.812Z,11.20
2023-03-02T06:07:49.381Z,11.07
2023-03-02T06:10:16.869Z,10.43
2023-03-02T06:12:44.184Z,11.07
2023-03-02T06:15:11.632Z,9.55
2023-03-02T06:17:39.002Z,9.97
2023-03-02T06:20:10.774Z,10.48
2023-03-02T06:22:42.247Z,9.82
2023-03-02T06:25:10.628Z,10.15
2023-03-02T06:27:39.076Z,9.80
2023-03-02T06:30:07.498Z,10.27
2023-03-02T06:32:35.706Z,9.85
2023-03-02T06:35:03.973Z,10.13
2023-03-02T06:37:31.371Z,10.25
2023-03-02T06:39:58.989Z,8.70
2023-03-02T06:42:27.010Z,11.00
2023-03-02T06:44:55.190Z,10.50
2023-03-02T06:47:22.754Z,10.57
2023-03-02T06:49:50.078Z,10.55
2023-03-02T06:52:17.726Z,10.25
2023-03-02T06:54:45.070Z,10.57
2023-03-02T06:57:12.284Z,9.88
2023-03-02T06:59:39.384Z,10.15
2023-03-02T07:02:07.299Z,10.77
2023-03-02T07:04:34.487Z,10.65
2023-03-02T07:07:01.960Z,10.80
2023-03-02T07:09:30.956Z,9.95
2023-03-02T07:11:58.120Z,10.52
2023-03-02T07:14:25.313Z,10.85
2023-03-02T07:16:52.621Z,10.13
2023-03-02T07:19:19.868Z,9.80
2023-03-02T07:21:47.181Z,10.52
2023-03-02T07:24:14.316Z,11.35
2023-03-02T07:26:41.527Z,11.10
2023-03-02T07:29:08.825Z,10.95
2023-03-02T07:31:36.041Z,11.17
2023-03-02T07:34:03.219Z,11.32
2023-03-02T07:36:30.425Z,9.38
2023-03-02T07:38:57.582Z,10.55
2023-03-02T07:41:24.986Z,10.82
2023-03-02T07:43:52.237Z,8.60
2023-03-02T07:46:19.509Z,10.25
2023-03-02T07:48:46.748Z,10.77
2023-03-02T07:51:13.911Z,9.75
2023-03-02T07:53:41.176Z,10.27
2023-03-02T07:56:09.350Z,10.83
2023-03-02T07:58:36.756Z,9.43
2023-03-02T08:01:04.777Z,9.73
2023-03-02T08:03:32.259Z,9.35
2023-03-02T08:05:59.441Z,9.27
2023-03-02T08:08:26.765Z,9.17
2023-03-02T08:10:53.950Z,9.18
2023-03-02T08:13:21.107Z,9.13
2023-03-02T08:15:48.492Z,8.82
2023-03-02T08:18:15.637Z,8.60
2023-03-02T08:20:42.918Z,8.40
2023-03-02T08:23:10.089Z,8.43
2023-03-02T08:25:38.581Z,8.50
2023-03-02T08:28:05.766Z,8.63
2023-03-02T08:30:32.945Z,8.02
2023-03-02T08:33:03.140Z,7.90
2023-03-02T08:35:32.739Z,7.90
2023-03-02T08:38:00.126Z,7.80
2023-03-02T08:40:27.397Z,7.38
2023-03-02T08:42:57.382Z,7.82
2023-03-02T08:45:25.274Z,7.88
2023-03-02T08:47:55.599Z,6.88
2023-03-02T08:50:22.951Z,6.95
2023-03-02T08:52:50.460Z,8.25
2023-03-02T08:55:18.566Z,6.78
2023-03-02T08:57:46.090Z,6.88
2023-03-02T09:00:14.994Z,6.70
2023-03-02T09:02:42.383Z,8.32
2023-03-02T09:05:09.663Z,6.88
2023-03-02T09:07:36.821Z,7.30
2023-03-02T09:10:04.201Z,6.97
2023-03-02T09:12:31.556Z,6.55
2023-03-02T09:14:58.800Z,7.50
2023-03-02T09:17:26.077Z,7.25
2023-03-02T09:19:53.241Z,7.15
2023-03-02T09:22:21.021Z,7.35
2023-03-02T09:24:49.532Z,7.10
2023-03-02T09:27:16.797Z,6.88
2023-03-02T09:29:44.283Z,7.32
2023-03-02T09:32:13.644Z,7.57
2023-03-02T09:34:41.080Z,7.60
2023-03-02T09:37:08.423Z,7.53
2023-03-02T09:39:35.842Z,7.60
2023-03-02T09:42:03.060Z,7.40
2023-03-02T09:44:43.533Z,7.00
2023-03-02T09:47:35.148Z,7.38
2023-03-02T09:50:22.102Z,6.57
2023-03-02T09:53:03.017Z,7.25
2023-03-02T09:55:34.438Z,6.90
2023-03-02T09:58:04.426Z,7.20
2023-03-02T10:00:33.530Z,7.00
2023-03-02T10:03:16.174Z,7.50
2023-03-02T10:05:54.258Z,7.20
2023-03-02T10:08:34.649Z,6.75
2023-03-02T10:11:07.879Z,7.53
2023-03-02T10:13:47.601Z,7.05
2023-03-02T10:16:38.767Z,6.75
2023-03-02T10:19:15.160Z,6.63
2023-03-02T10:21:45.291Z,6.78
2023-03-02T10:24:30.571Z,5.90
2023-03-02T10:27:06.366Z,5.45
2023-03-02T10:29:40.588Z,6.95
2023-03-02T10:32:11.035Z,6.32
2023-03-02T10:34:38.927Z,6.10
2023-03-02T10:37:12.808Z,6.13
2023-03-02T10:39:40.145Z,6.40
2023-03-02T10:42:08.509Z,6.55
2023-03-02T10:44:40.618Z,5.55
2023-03-02T10:47:08.696Z,6.65
2023-03-02T10:49:39.446Z,6.10
2023-03-02T10:52:12.970Z,6.28
2023-03-02T10:54:40.212Z,5.35
2023-03-02T10:57:28.485Z,6.78
2023-03-02T10:59:59.662Z,6.25
2023-03-02T11:02:28.453Z,6.22
2023-03-02T11:04:57.945Z,6.32
2023-03-02T11:07:26.661Z,6.03
2023-03-02T11:10:13.854Z,6.15
2023-03-02T11:12:45.962Z,5.80
2023-03-02T11:15:13.093Z,6.38
2023-03-02T11:17:41.528Z,6.28
2023-03-02T11:20:18.186Z,5.60
2023-03-02T11:22:53.738Z,5.82
2023-03-02T11:25:26.568Z,5.82
2023-03-02T11:27:57.669Z,6.22
2023-03-02T11:30:27.355Z,5.80
2023-03-02T11:33:15.848Z,5.60
2023-03-02T11:35:43.120Z,5.80
2023-03-02T11:38:13.524Z,5.38
2023-03-02T11:40:47.224Z,5.43
2023-03-02T11:43:14.819Z,5.28
2023-03-02T11:45:44.404Z,5.37
2023-03-02T11:48:33.569Z,5.50
2023-03-02T11:51:05.994Z,4.93
2023-03-02T11:53:46.176Z,5.72
2023-03-02T11:56:13.529Z,5.03
2023-03-02T11:58:42.657Z,4.67
2023-03-02T12:01:15.329Z,4.50
2023-03-02T12:03:43.153Z,4.25
2023-03-02T12:06:16.167Z,4.32
2023-03-02T12:08:44.551Z,4.75
2023-03-02T12:11:18.186Z,4.53
2023-03-02T12:13:46.621Z,4.90
2023-03-02T12:16:33.097Z,4.45
2023-03-02T12:19:00.834Z,4.03
2023-03-02T12:21:28.023Z,4.38
2023-03-02T12:23:58.338Z,4.37
2023-03-02T12:26:37.025Z,4.40
2023-03-02T12:29:10.337Z,4.78
2023-03-02T12:31:42.286Z,4.32
2023-03-02T12:34:26.667Z,4.15
2023-03-02T12:36:59.410Z,4.00
2023-03-02T12:39:26.620Z,4.30
2023-03-02T12:41:59.916Z,4.68
2023-03-02T12:44:39.205Z,4.88
2023-03-02T12:47:15.137Z,4.97
2023-03-02T12:49:50.170Z,4.80
2023-03-02T12:52:22.750Z,4.40
2023-03-02T12:55:00.111Z,4.72
2023-03-02T12:57:27.546Z,4.13
2023-03-02T12:59:55.946Z,4.20
2023-03-02T13:02:25.473Z,4.33
2023-03-02T13:04:58.990Z,3.90
2023-03-02T13:07:35.728Z,3.55
2023-03-02T13:10:06.919Z,4.00
2023-03-02T13:12:35.026Z,3.90
2023-03-02T13:15:02.423Z,3.67
2023-03-02T13:17:31.413Z,4.22
2023-03-02T13:20:02.569Z,3.08
2023-03-02T13:22:30.063Z,4.20
2023-03-02T13:24:58.068Z,4.22
2023-03-02T13:27:26.151Z,6.53
2023-03-02T13:29:55.845Z,5.90
2023-03-02T13:32:25.016Z,5.30
2023-03-02T13:34:59.791Z,4.13
2023-03-02T13:37:39.405Z,3.70
2023-03-02T13:40:26.742Z,2.90
2023-03-02T13:42:54.554Z,3.72
2023-03-02T13:45:26.042Z,3.63
2023-03-02T13:47:54.331Z,3.72
2023-03-02T13:50:26.650Z,3.55
2023-03-02T13:52:56.042Z,8.23
2023-03-02T13:55:23.405Z,9.48
2023-03-02T13:57:51.915Z,6.10
2023-03-02T14:00:22.650Z,7.53
2023-03-02T14:02:50.588Z,6.45
2023-03-02T14:05:33.114Z,8.43
2023-03-02T14:08:01.363Z,9.07
2023-03-02T14:10:28.715Z,8.73
2023-03-02T14:13:27.913Z,6.22
2023-03-02T14:15:55.301Z,6.00
2023-03-02T14:18:28.701Z,5.80
2023-03-02T14:20:56.472Z,5.80
2023-03-02T14:23:24.422Z,6.07
2023-03-02T14:25:52.062Z,6.07
2023-03-02T14:28:23.325Z,6.38
2023-03-02T14:30:52.338Z,8.03
2023-03-02T14:33:20.596Z,8.63
2023-03-02T14:35:49.831Z,6.43
2023-03-02T14:38:17.219Z,7.35
2023-03-02T14:40:44.625Z,6.90
2023-03-02T14:43:11.860Z,7.63
2023-03-02T14:45:39.151Z,7.28
2023-03-02T14:48:06.552Z,9.15
2023-03-02T14:50:36.421Z,15.63
2023-03-02T14:53:03.781Z,5.93
2023-03-02T14:55:32.025Z,5.63
2023-03-02T14:58:25.659Z,5.78
2023-03-02T15:00:52.803Z,6.63
2023-03-02T15:03:22.872Z,6.10
2023-03-02T15:06:00.850Z,5.78
2023-03-02T15:08:30.072Z,5.67
2023-03-02T15:10:57.442Z,6.13
2023-03-02T15:13:24.661Z,6.97
2023-03-02T15:15:52.836Z,6.90
2023-03-02T15:18:20.245Z,7.15
2023-03-02T15:20:47.670Z,6.47
2023-03-02T15:23:15.056Z,7.15
2023-03-02T15:25:42.959Z,7.43
2023-03-02T15:28:12.947Z,7.13
2023-03-02T15:30:41.699Z,7.90
2023-03-02T15:33:08.935Z,9.63
2023-03-02T15:35:40.241Z,7.85
2023-03-02T15:38:08.018Z,6.65
2023-03-02T15:40:36.288Z,7.60
2023-03-02T15:43:03.652Z,6.55
2023-03-02T15:45:30.966Z,8.53
2023-03-02T15:47:58.412Z,7.28
2023-03-02T15:50:25.776Z,7.50
2023-03-02T15:52:52.986Z,6.65
2023-03-02T15:55:20.363Z,6.93
2023-03-02T15:57:47.750Z,6.90
2023-03-02T16:00:15.270Z,7.20
2023-03-02T16:02:42.647Z,6.85
2023-03-02T16:05:10.476Z,8.60
2023-03-02T16:07:37.736Z,8.85
2023-03-02T16:10:07.113Z,9.50
2023-03-02T16:12:34.535Z,11.40
2023-03-02T16:15:01.920Z,9.45
2023-03-02T16:17:29.154Z,8.00
2023-03-02T16:19:56.461Z,8.07
2023-03-02T16:22:23.833Z,7.47
2023-03-02T16:24:51.016Z,7.63
2023-03-02T16:27:18.441Z,7.75
2023-03-02T16:29:45.754Z,6.65
2023-03-02T16:32:13.118Z,7.32
2023-03-02T16:34:40.397Z,6.55
2023-03-02T16:37:07.745Z,6.78
2023-03-02T16:39:35.151Z,9.10
2023-03-02T16:42:02.442Z,13.15
2023-03-02T16:44:29.796Z,10.75
2023-03-02T16:46:57.523Z,9.10
2023-03-02T16:49:24.917Z,10.70
2023-03-02T16:51:56.779Z,11.23
2023-03-02T16:54:24.497Z,11.77
2023-03-02T16:56:51.751Z,10.48
2023-03-02T16:59:19.078Z,12.93
2023-03-02T17:01:46.463Z,10.13
2023-03-02T17:04:13.734Z,14.38
2023-03-02T17:06:59.580Z,8.38
2023-03-02T17:09:28.320Z,7.38
2023-03-02T17:11:55.757Z,10.75
2023-03-02T17:14:23.104Z,9.82
2023-03-02T17:16:50.597Z,10.80
2023-03-02T17:19:17.928Z,16.40
2023-03-02T17:21:45.204Z,12.85
2023-03-02T17:24:13.691Z,8.88
2023-03-02T17:26:41.080Z,8.73
2023-03-02T17:29:08.650Z,8.27
2023-03-02T17:31:36.089Z,7.85
2023-03-02T17:34:03.277Z,8.50
2023-03-02T17:36:32.178Z,7.68
2023-03-02T17:38:59.393Z,8.93
2023-03-02T17:41:26.678Z,9.57
2023-03-02T17:43:53.834Z,8.68
2023-03-02T17:46:23.225Z,7.38
2023-03-02T17:48:53.981Z,6.78
2023-03-02T17:51:22.370Z,6.82
2023-03-02T17:53:50.546Z,7.63
2023-03-02T17:56:19.076Z,9.13
2023-03-02T17:58:47.130Z,10.30
2023-03-02T18:01:16.073Z,9.27
2023-03-02T18:03:44.926Z,8.02
2023-03-02T18:06:13.413Z,7.55
2023-03-02T18:08:41.387Z,6.65
2023-03-02T18:11:08.752Z,7.28
2023-03-02T18:13:36.422Z,7.93
2023-03-02T18:16:04.015Z,7.20
2023-03-02T18:18:31.355Z,6.93
2023-03-02T18:20:58.542Z,7.80
2023-03-02T18:23:26.109Z,8.60
2023-03-02T18:25:54.178Z,8.63
2023-03-02T18:28:21.488Z,8.68
2023-03-02T18:30:48.788Z,9.57
2023-03-02T18:33:16.067Z,9.35
2023-03-02T18:35:43.747Z,8.50
2023-03-02T18:38:11.110Z,8.65
2023-03-02T18:40:38.563Z,8.07
2023-03-02T18:43:08.399Z,6.38
2023-03-02T18:45:35.885Z,5.85
2023-03-02T18:48:03.402Z,6.22
2023-03-02T18:50:31.051Z,5.82
2023-03-02T18:52:58.642Z,5.93
2023-03-02T18:55:25.850Z,5.95
2023-03-02T18:57:55.868Z,6.85
2023-03-02T19:00:27.720Z,5.93
2023-03-02T19:02:55.883Z,5.63
2023-03-02T19:05:25.184Z,6.45
2023-03-02T19:07:52.484Z,6.75
2023-03-02T19:10:21.499Z,6.40
2023-03-02T19:12:48.820Z,6.07
2023-03-02T19:15:16.108Z,5.75
2023-03-02T19:17:43.966Z,6.85
2023-03-02T19:20:15.630Z,6.15
2023-03-02T19:22:43.184Z,6.70
2023-03-02T19:25:10.664Z,6.53
2023-03-02T19:27:38.072Z,6.45
2023-03-02T19:30:06.182Z,6.32
2023-03-02T19:32:33.606Z,6.35
2023-03-02T19:35:02.376Z,6.90
2023-03-02T19:37:30.925Z,6.68
2023-03-02T19:39:58.163Z,6.50
2023-03-02T19:42:27.547Z,6.07
2023-03-02T19:44:54.753Z,6.22
2023-03-02T19:47:22.055Z,7.47
2023-03-02T19:49:49.471Z,6.53
2023-03-02T19:52:17.928Z,9.65
2023-03-02T19:54:45.186Z,8.60
2023-03-02T19:57:12.423Z,7.30
2023-03-02T19:59:41.311Z,7.85
2023-03-02T20:02:09.092Z,10.30
2023-03-02T20:04:36.549Z,12.65
2023-03-02T20:07:03.825Z,12.70
2023-03-02T20:09:31.263Z,9.38
2023-03-02T20:12:00.398Z,11.15
2023-03-02T20:14:33.786Z,8.75
2023-03-02T20:17:02.132Z,13.68
2023-03-02T20:19:29.473Z,14.52
2023-03-02T20:21:56.867Z,17.23
2023-03-02T20:24:24.335Z,14.07
2023-03-02T20:26:51.714Z,11.18
2023-03-02T20:29:19.181Z,12.05
2023-03-02T20:31:46.799Z,11.30
2023-03-02T20:34:17.851Z,9.60
2023-03-02T20:36:45.896Z,6.90
2023-03-02T20:39:15.847Z,7.15
2023-03-02T20:41:43.472Z,9.07
2023-03-02T20:44:13.362Z,7.43
2023-03-02T20:46:43.306Z,8.30
2023-03-02T20:49:15.372Z,8.77
2023-03-02T20:51:43.916Z,10.47
2023-03-02T20:54:13.472Z,8.85
2023-03-02T20:56:40.906Z,9.30
2023-03-02T20:59:08.409Z,8.30
2023-03-02T21:01:35.827Z,9.57
2023-03-02T21:04:03.202Z,9.30
2023-03-02T21:06:33.441Z,8.77
2023-03-02T21:09:01.513Z,10.60
2023-03-02T21:11:30.198Z,9.02
2023-03-02T21:13:59.454Z,8.50
2023-03-02T21:16:28.529Z,10.40
2023-03-02T21:18:56.436Z,8.95
2023-03-02T21:21:35.709Z,9.75
2023-03-02T21:24:08.304Z,10.68
2023-03-02T21:26:36.735Z,14.60
2023-03-02T21:29:05.219Z,18.58
2023-03-02T21:31:32.711Z,11.52
2023-03-02T21:34:00.853Z,12.15
2023-03-02T21:36:28.805Z,10.80
2023-03-02T21:38:56.185Z,11.50
2023-03-02T21:41:23.716Z,13.63
2023-03-02T21:43:51.234Z,14.43
2023-03-02T21:46:20.923Z,10.05
2023-03-02T21:48:49.094Z,11.90
2023-03-02T21:51:16.554Z,11.10
2023-03-02T21:53:43.959Z,12.80
2023-03-02T21:56:20.642Z,10.05
2023-03-02T21:58:51.318Z,10.00
2023-03-02T22:01:18.680Z,12.07
2023-03-02T22:03:46.097Z,12.25
2023-03-02T22:06:17.419Z,11.50
2023-03-02T22:08:44.988Z,11.05
2023-03-02T22:11:15.568Z,14.00
2023-03-02T22:13:42.860Z,12.15
2023-03-02T22:16:10.443Z,10.57
2023-03-02T22:18:37.875Z,9.70
2023-03-02T22:21:20.181Z,9.60
2023-03-02T22:23:47.856Z,9.77
2023-03-02T22:26:16.567Z,10.18
2023-03-02T22:28:44.517Z,9.75
2023-03-02T22:31:19.206Z,9.83
2023-03-02T22:33:48.334Z,9.57
2023-03-02T22:36:21.582Z,10.30
2023-03-02T22:38:48.945Z,9.45
2023-03-02T22:41:17.872Z,9.57
2023-03-02T22:43:45.591Z,8.40
2023-03-02T22:46:15.551Z,9.27
2023-03-02T22:48:44.951Z,9.30
2023-03-02T22:51:16.898Z,9.32
2023-03-02T22:53:49.492Z,9.13
2023-03-02T22:56:25.889Z,9.33
2023-03-02T22:58:53.690Z,8.95
2023-03-02T23:01:25.359Z,8.98
2023-03-02T23:03:54.207Z,6.60
2023-03-02T23:06:24.766Z,8.75
2023-03-02T23:08:56.450Z,9.60
2023-03-02T23:11:25.814Z,8.95
2023-03-02T23:13:54.170Z,9.35
2023-03-02T23:16:24.046Z,8.32
2023-03-02T23:18:52.383Z,9.77
2023-03-02T23:21:22.471Z,8.73
2023-03-02T23:23:51.246Z,8.55
2023-03-02T23:26:19.800Z,8.70
2023-03-02T23:28:51.497Z,8.20
2023-03-02T23:31:18.909Z,8.02
2023-03-02T23:33:46.242Z,8.20
2023-03-02T23:36:13.794Z,7.68
2023-03-02T23:38:41.188Z,7.43
2023-03-02T23:41:09.862Z,8.38
2023-03-02T23:43:37.366Z,7.32
2023-03-02T23:46:04.859Z,7.47
2023-03-02T23:48:32.102Z,7.28
2023-03-02T23:50:59.343Z,8.10
2023-03-02T23:53:26.822Z,6.93
2023-03-02T23:55:55.398Z,8.00
2023-03-02T23:58:23.080Z,7.97
